sensor_id;sensor_type;location;lat;lon;timestamp;P1;durP1;ratioP1;P2;durP2;ratioP2
4766;SDS011;2397;53.576;9.746;2023-04-09T00:01:13;134.53;;;66.53;;
4766;SDS011;2397;53.576;9.746;2023-04-09T00:03:39;141.70;;;64.03;;
4766;SDS011;2397;53.576;9.746;2023-04-09T00:06:06;160.17;;;69.77;;
4766;SDS011;2397;53.576;9.746;2023-04-09T00:08:33;146.63;;;65.07;;
4766;SDS011;2397;53.576;9.746;2023-04-09T00:10:59;150.70;;;65.77;;
4766;SDS011;2397;53.576;9.746;2023-04-09T00:13:25;158.63;;;66.00;;
4766;SDS011;2397;53.576;9.746;2023-04-09T00:16:04;138.73;;;59.77;;
4766;SDS011;2397;53.576;9.746;2023-04-09T00:18:31;128.03;;;58.30;;
4766;SDS011;2397;53.576;9.746;2023-04-09T00:20:58;110.73;;;55.20;;
4766;SDS011;2397;53.576;9.746;2023-04-09T00:23:24;126.23;;;56.93;;
4766;SDS011;2397;53.576;9.746;2023-04-09T00:25:50;112.33;;;54.13;;
4766;SDS011;2397;53.576;9.746;2023-04-09T00:28:17;120.83;;;54.40;;
4766;SDS011;2397;53.576;9.746;2023-04-09T00:30:44;121.73;;;54.63;;
4766;SDS011;2397;53.576;9.746;2023-04-09T00:33:10;115.30;;;53.67;;
4766;SDS011;2397;53.576;9.746;2023-04-09T00:35:37;121.67;;;56.10;;
4766;SDS011;2397;53.576;9.746;2023-04-09T00:38:04;120.60;;;54.60;;
4766;SDS011;2397;53.576;9.746;2023-04-09T00:40:30;121.83;;;56.10;;
4766;SDS011;2397;53.576;9.746;2023-04-09T00:42:56;116.07;;;52.83;;
4766;SDS011;2397;53.576;9.746;2023-04-09T00:45:23;113.13;;;53.23;;
4766;SDS011;2397;53.576;9.746;2023-04-09T00:47:49;127.57;;;52.17;;
4766;SDS011;2397;53.576;9.746;2023-04-09T00:50:16;114.27;;;52.60;;
4766;SDS011;2397;53.576;9.746;2023-04-09T00:52:43;106.93;;;53.47;;
4766;SDS011;2397;53.576;9.746;2023-04-09T00:55:10;114.73;;;52.93;;
4766;SDS011;2397;53.576;9.746;2023-04-09T00:57:37;119.37;;;55.20;;
4766;SDS011;2397;53.576;9.746;2023-04-09T01:00:04;106.93;;;52.03;;
4766;SDS011;2397;53.576;9.746;2023-04-09T01:02:32;95.33;;;50.20;;
4766;SDS011;2397;53.576;9.746;2023-04-09T01:05:00;102.73;;;49.70;;
4766;SDS011;2397;53.576;9.746;2023-04-09T01:09:56;106.77;;;48.93;;
4766;SDS011;2397;53.576;9.746;2023-04-09T01:12:42;94.30;;;45.50;;
4766;SDS011;2397;53.576;9.746;2023-04-09T01:15:17;109.83;;;45.53;;
4766;SDS011;2397;53.576;9.746;2023-04-09T01:18:04;93.97;;;43.47;;
4766;SDS011;2397;53.576;9.746;2023-04-09T01:20:42;83.10;;;38.47;;
4766;SDS011;2397;53.576;9.746;2023-04-09T01:28:56;82.70;;;37.90;;
4766;SDS011;2397;53.576;9.746;2023-04-09T01:31:27;77.43;;;37.70;;
4766;SDS011;2397;53.576;9.746;2023-04-09T01:33:57;71.17;;;35.93;;
4766;SDS011;2397;53.576;9.746;2023-04-09T01:36:26;71.00;;;38.23;;
4766;SDS011;2397;53.576;9.746;2023-04-09T01:38:57;77.73;;;37.30;;
4766;SDS011;2397;53.576;9.746;2023-04-09T01:41:26;87.60;;;38.97;;
4766;SDS011;2397;53.576;9.746;2023-04-09T01:43:56;73.17;;;37.87;;
4766;SDS011;2397;53.576;9.746;2023-04-09T01:46:26;78.53;;;37.40;;
4766;SDS011;2397;53.576;9.746;2023-04-09T01:48:54;78.13;;;37.40;;
4766;SDS011;2397;53.576;9.746;2023-04-09T01:51:22;75.13;;;34.53;;
4766;SDS011;2397;53.576;9.746;2023-04-09T01:53:48;74.70;;;36.40;;
4766;SDS011;2397;53.576;9.746;2023-04-09T01:56:15;69.20;;;33.93;;
4766;SDS011;2397;53.576;9.746;2023-04-09T01:58:41;77.07;;;36.40;;
4766;SDS011;2397;53.576;9.746;2023-04-09T02:01:26;76.60;;;37.17;;
4766;SDS011;2397;53.576;9.746;2023-04-09T02:04:10;70.83;;;34.63;;
4766;SDS011;2397;53.576;9.746;2023-04-09T02:09:31;63.40;;;33.20;;
4766;SDS011;2397;53.576;9.746;2023-04-09T02:12:02;76.13;;;35.73;;
4766;SDS011;2397;53.576;9.746;2023-04-09T02:14:31;62.53;;;33.70;;
4766;SDS011;2397;53.576;9.746;2023-04-09T02:16:59;65.00;;;32.00;;
4766;SDS011;2397;53.576;9.746;2023-04-09T02:19:45;63.20;;;32.20;;
4766;SDS011;2397;53.576;9.746;2023-04-09T02:22:13;66.03;;;28.43;;
4766;SDS011;2397;53.576;9.746;2023-04-09T02:24:41;59.60;;;28.90;;
4766;SDS011;2397;53.576;9.746;2023-04-09T02:27:08;59.07;;;29.10;;
4766;SDS011;2397;53.576;9.746;2023-04-09T02:29:36;61.07;;;29.20;;
4766;SDS011;2397;53.576;9.746;2023-04-09T02:32:03;58.30;;;28.17;;
4766;SDS011;2397;53.576;9.746;2023-04-09T02:34:30;60.70;;;27.50;;
4766;SDS011;2397;53.576;9.746;2023-04-09T02:36:56;63.43;;;28.33;;
4766;SDS011;2397;53.576;9.746;2023-04-09T02:39:23;54.37;;;26.03;;
4766;SDS011;2397;53.576;9.746;2023-04-09T02:41:49;53.40;;;24.93;;
4766;SDS011;2397;53.576;9.746;2023-04-09T02:44:16;46.83;;;24.50;;
4766;SDS011;2397;53.576;9.746;2023-04-09T02:46:43;54.50;;;25.33;;
4766;SDS011;2397;53.576;9.746;2023-04-09T02:49:12;45.33;;;23.00;;
4766;SDS011;2397;53.576;9.746;2023-04-09T02:51:39;48.13;;;23.73;;
4766;SDS011;2397;53.576;9.746;2023-04-09T02:54:05;46.50;;;22.70;;
4766;SDS011;2397;53.576;9.746;2023-04-09T02:56:32;45.20;;;24.07;;
4766;SDS011;2397;53.576;9.746;2023-04-09T02:58:58;46.53;;;23.30;;
4766;SDS011;2397;53.576;9.746;2023-04-09T03:01:24;49.57;;;23.10;;
4766;SDS011;2397;53.576;9.746;2023-04-09T03:03:51;45.80;;;23.33;;
4766;SDS011;2397;53.576;9.746;2023-04-09T03:06:18;48.43;;;22.20;;
4766;SDS011;2397;53.576;9.746;2023-04-09T03:08:44;42.23;;;23.20;;
4766;SDS011;2397;53.576;9.746;2023-04-09T03:11:11;39.93;;;21.13;;
4766;SDS011;2397;53.576;9.746;2023-04-09T03:13:37;44.50;;;21.80;;
4766;SDS011;2397;53.576;9.746;2023-04-09T03:16:04;39.20;;;21.63;;
4766;SDS011;2397;53.576;9.746;2023-04-09T03:18:31;39.67;;;22.43;;
4766;SDS011;2397;53.576;9.746;2023-04-09T03:20:58;42.43;;;21.97;;
4766;SDS011;2397;53.576;9.746;2023-04-09T03:23:27;46.90;;;25.03;;
4766;SDS011;2397;53.576;9.746;2023-04-09T03:26:00;44.27;;;23.03;;
4766;SDS011;2397;53.576;9.746;2023-04-09T03:28:31;36.60;;;21.10;;
4766;SDS011;2397;53.576;9.746;2023-04-09T03:30:57;45.47;;;24.30;;
4766;SDS011;2397;53.576;9.746;2023-04-09T03:33:24;43.17;;;23.30;;
4766;SDS011;2397;53.576;9.746;2023-04-09T03:35:53;41.43;;;23.90;;
4766;SDS011;2397;53.576;9.746;2023-04-09T03:38:30;44.80;;;24.57;;
4766;SDS011;2397;53.576;9.746;2023-04-09T03:40:59;40.70;;;23.87;;
4766;SDS011;2397;53.576;9.746;2023-04-09T03:43:25;39.63;;;23.30;;
4766;SDS011;2397;53.576;9.746;2023-04-09T03:45:52;40.70;;;22.37;;
4766;SDS011;2397;53.576;9.746;2023-04-09T03:48:22;37.37;;;21.47;;
4766;SDS011;2397;53.576;9.746;2023-04-09T03:50:49;40.97;;;23.03;;
4766;SDS011;2397;53.576;9.746;2023-04-09T03:53:23;41.03;;;22.83;;
4766;SDS011;2397;53.576;9.746;2023-04-09T03:55:51;45.37;;;25.43;;
4766;SDS011;2397;53.576;9.746;2023-04-09T03:58:22;40.70;;;22.07;;
4766;SDS011;2397;53.576;9.746;2023-04-09T04:00:49;44.00;;;22.47;;
4766;SDS011;2397;53.576;9.746;2023-04-09T04:03:35;37.00;;;22.03;;
4766;SDS011;2397;53.576;9.746;2023-04-09T04:06:14;46.03;;;24.70;;
4766;SDS011;2397;53.576;9.746;2023-04-09T04:09:10;42.43;;;22.47;;
4766;SDS011;2397;53.576;9.746;2023-04-09T04:11:45;43.50;;;22.87;;
4766;SDS011;2397;53.576;9.746;2023-04-09T04:14:13;47.77;;;24.50;;
4766;SDS011;2397;53.576;9.746;2023-04-09T04:16:44;48.30;;;23.60;;
4766;SDS011;2397;53.576;9.746;2023-04-09T04:19:14;47.60;;;24.77;;
4766;SDS011;2397;53.576;9.746;2023-04-09T04:21:45;42.00;;;22.73;;
4766;SDS011;2397;53.576;9.746;2023-04-09T04:24:11;48.60;;;23.83;;
4766;SDS011;2397;53.576;9.746;2023-04-09T04:26:39;46.57;;;25.37;;
4766;SDS011;2397;53.576;9.746;2023-04-09T04:29:07;42.67;;;23.90;;
4766;SDS011;2397;53.576;9.746;2023-04-09T04:31:49;51.63;;;28.97;;
4766;SDS011;2397;53.576;9.746;2023-04-09T04:34:18;73.10;;;35.53;;
4766;SDS011;2397;53.576;9.746;2023-04-09T04:36:51;74.60;;;38.60;;
4766;SDS011;2397;53.576;9.746;2023-04-09T04:39:18;82.37;;;38.97;;
4766;SDS011;2397;53.576;9.746;2023-04-09T04:41:51;82.60;;;39.50;;
4766;SDS011;2397;53.576;9.746;2023-04-09T04:44:21;80.50;;;38.53;;
4766;SDS011;2397;53.576;9.746;2023-04-09T04:46:52;82.73;;;39.60;;
4766;SDS011;2397;53.576;9.746;2023-04-09T04:49:20;88.60;;;41.33;;
4766;SDS011;2397;53.576;9.746;2023-04-09T04:51:46;84.30;;;41.07;;
4766;SDS011;2397;53.576;9.746;2023-04-09T04:54:14;84.37;;;38.90;;
4766;SDS011;2397;53.576;9.746;2023-04-09T04:56:48;80.33;;;39.67;;
4766;SDS011;2397;53.576;9.746;2023-04-09T04:59:23;88.73;;;38.87;;
4766;SDS011;2397;53.576;9.746;2023-04-09T05:01:59;87.43;;;41.50;;
4766;SDS011;2397;53.576;9.746;2023-04-09T05:04:31;110.30;;;40.97;;
4766;SDS011;2397;53.576;9.746;2023-04-09T05:06:58;89.40;;;40.73;;
4766;SDS011;2397;53.576;9.746;2023-04-09T05:09:25;92.47;;;42.13;;
4766;SDS011;2397;53.576;9.746;2023-04-09T05:11:59;100.07;;;42.93;;
4766;SDS011;2397;53.576;9.746;2023-04-09T05:14:26;93.10;;;40.37;;
4766;SDS011;2397;53.576;9.746;2023-04-09T05:16:53;102.37;;;39.30;;
4766;SDS011;2397;53.576;9.746;2023-04-09T05:19:23;103.57;;;41.67;;
4766;SDS011;2397;53.576;9.746;2023-04-09T05:21:56;89.33;;;38.63;;
4766;SDS011;2397;53.576;9.746;2023-04-09T05:24:23;93.27;;;38.87;;
4766;SDS011;2397;53.576;9.746;2023-04-09T05:26:49;106.03;;;41.60;;
4766;SDS011;2397;53.576;9.746;2023-04-09T05:29:16;93.03;;;41.77;;
4766;SDS011;2397;53.576;9.746;2023-04-09T05:31:42;96.43;;;39.10;;
4766;SDS011;2397;53.576;9.746;2023-04-09T05:34:19;93.03;;;39.27;;
4766;SDS011;2397;53.576;9.746;2023-04-09T05:36:49;97.77;;;40.10;;
4766;SDS011;2397;53.576;9.746;2023-04-09T05:39:18;99.07;;;42.13;;
4766;SDS011;2397;53.576;9.746;2023-04-09T05:41:44;97.63;;;40.20;;
4766;SDS011;2397;53.576;9.746;2023-04-09T05:44:27;95.70;;;41.17;;
4766;SDS011;2397;53.576;9.746;2023-04-09T05:47:07;95.83;;;39.10;;
4766;SDS011;2397;53.576;9.746;2023-04-09T05:49:40;93.10;;;38.93;;
4766;SDS011;2397;53.576;9.746;2023-04-09T05:52:11;96.43;;;38.67;;
4766;SDS011;2397;53.576;9.746;2023-04-09T05:54:37;86.63;;;38.20;;
4766;SDS011;2397;53.576;9.746;2023-04-09T05:57:06;87.73;;;37.00;;
4766;SDS011;2397;53.576;9.746;2023-04-09T05:59:36;80.80;;;36.80;;
4766;SDS011;2397;53.576;9.746;2023-04-09T06:02:02;77.47;;;36.70;;
4766;SDS011;2397;53.576;9.746;2023-04-09T06:04:30;75.83;;;34.37;;
4766;SDS011;2397;53.576;9.746;2023-04-09T06:06:58;86.63;;;35.20;;
4766;SDS011;2397;53.576;9.746;2023-04-09T06:09:25;82.60;;;37.53;;
4766;SDS011;2397;53.576;9.746;2023-04-09T06:11:52;76.53;;;35.43;;
4766;SDS011;2397;53.576;9.746;2023-04-09T06:14:19;80.87;;;36.00;;
4766;SDS011;2397;53.576;9.746;2023-04-09T06:16:46;72.60;;;33.57;;
4766;SDS011;2397;53.576;9.746;2023-04-09T06:19:14;78.23;;;35.00;;
4766;SDS011;2397;53.576;9.746;2023-04-09T06:21:41;85.13;;;35.83;;
4766;SDS011;2397;53.576;9.746;2023-04-09T06:24:08;82.90;;;34.90;;
4766;SDS011;2397;53.576;9.746;2023-04-09T06:26:34;83.57;;;36.27;;
4766;SDS011;2397;53.576;9.746;2023-04-09T06:29:01;72.77;;;33.37;;
4766;SDS011;2397;53.576;9.746;2023-04-09T06:31:28;74.07;;;34.03;;
4766;SDS011;2397;53.576;9.746;2023-04-09T06:33:55;77.63;;;33.77;;
4766;SDS011;2397;53.576;9.746;2023-04-09T06:36:22;83.17;;;35.70;;
4766;SDS011;2397;53.576;9.746;2023-04-09T06:38:48;81.37;;;34.17;;
4766;SDS011;2397;53.576;9.746;2023-04-09T06:41:14;72.90;;;32.70;;
4766;SDS011;2397;53.576;9.746;2023-04-09T06:43:41;76.83;;;35.70;;
4766;SDS011;2397;53.576;9.746;2023-04-09T06:46:07;86.13;;;36.83;;
4766;SDS011;2397;53.576;9.746;2023-04-09T06:48:34;81.23;;;34.63;;
4766;SDS011;2397;53.576;9.746;2023-04-09T06:51:01;75.60;;;34.47;;
4766;SDS011;2397;53.576;9.746;2023-04-09T06:53:27;88.67;;;37.83;;
4766;SDS011;2397;53.576;9.746;2023-04-09T06:55:54;84.27;;;36.17;;
4766;SDS011;2397;53.576;9.746;2023-04-09T06:58:22;95.13;;;39.60;;
4766;SDS011;2397;53.576;9.746;2023-04-09T07:00:48;92.33;;;40.93;;
4766;SDS011;2397;53.576;9.746;2023-04-09T07:03:15;96.73;;;40.37;;
4766;SDS011;2397;53.576;9.746;2023-04-09T07:05:42;97.17;;;40.73;;
4766;SDS011;2397;53.576;9.746;2023-04-09T07:08:08;84.47;;;37.67;;
4766;SDS011;2397;53.576;9.746;2023-04-09T07:10:35;104.50;;;41.47;;
4766;SDS011;2397;53.576;9.746;2023-04-09T07:13:01;105.57;;;40.17;;
4766;SDS011;2397;53.576;9.746;2023-04-09T07:15:28;88.73;;;38.10;;
4766;SDS011;2397;53.576;9.746;2023-04-09T07:17:55;85.57;;;36.77;;
4766;SDS011;2397;53.576;9.746;2023-04-09T07:20:22;89.30;;;38.23;;
4766;SDS011;2397;53.576;9.746;2023-04-09T07:22:49;83.60;;;38.03;;
4766;SDS011;2397;53.576;9.746;2023-04-09T07:25:16;83.27;;;34.90;;
4766;SDS011;2397;53.576;9.746;2023-04-09T07:27:42;88.97;;;37.87;;
4766;SDS011;2397;53.576;9.746;2023-04-09T07:30:09;79.40;;;36.70;;
4766;SDS011;2397;53.576;9.746;2023-04-09T07:32:36;74.63;;;34.40;;
4766;SDS011;2397;53.576;9.746;2023-04-09T07:35:05;73.83;;;33.33;;
4766;SDS011;2397;53.576;9.746;2023-04-09T07:37:33;71.73;;;33.27;;
4766;SDS011;2397;53.576;9.746;2023-04-09T07:39:59;78.33;;;36.03;;
4766;SDS011;2397;53.576;9.746;2023-04-09T07:42:26;73.93;;;34.30;;
4766;SDS011;2397;53.576;9.746;2023-04-09T07:44:53;84.30;;;36.10;;
4766;SDS011;2397;53.576;9.746;2023-04-09T07:47:20;67.20;;;33.60;;
4766;SDS011;2397;53.576;9.746;2023-04-09T07:49:48;72.87;;;33.93;;
4766;SDS011;2397;53.576;9.746;2023-04-09T07:52:14;71.07;;;33.57;;
4766;SDS011;2397;53.576;9.746;2023-04-09T07:54:41;73.87;;;33.90;;
4766;SDS011;2397;53.576;9.746;2023-04-09T07:57:07;65.00;;;32.80;;
4766;SDS011;2397;53.576;9.746;2023-04-09T07:59:34;73.33;;;34.53;;
4766;SDS011;2397;53.576;9.746;2023-04-09T08:02:01;71.60;;;34.67;;
4766;SDS011;2397;53.576;9.746;2023-04-09T08:04:28;69.67;;;34.27;;
4766;SDS011;2397;53.576;9.746;2023-04-09T08:06:54;72.97;;;36.57;;
4766;SDS011;2397;53.576;9.746;2023-04-09T08:09:21;68.87;;;34.97;;
4766;SDS011;2397;53.576;9.746;2023-04-09T08:11:48;70.77;;;36.87;;
4766;SDS011;2397;53.576;9.746;2023-04-09T08:14:16;82.83;;;39.50;;
4766;SDS011;2397;53.576;9.746;2023-04-09T08:16:44;70.50;;;38.63;;
4766;SDS011;2397;53.576;9.746;2023-04-09T08:19:12;73.43;;;38.73;;
4766;SDS011;2397;53.576;9.746;2023-04-09T08:21:41;71.60;;;37.27;;
4766;SDS011;2397;53.576;9.746;2023-04-09T08:24:13;74.80;;;37.43;;
4766;SDS011;2397;53.576;9.746;2023-04-09T08:26:41;72.10;;;38.40;;
4766;SDS011;2397;53.576;9.746;2023-04-09T08:29:08;67.90;;;35.70;;
4766;SDS011;2397;53.576;9.746;2023-04-09T08:31:36;66.07;;;35.97;;
4766;SDS011;2397;53.576;9.746;2023-04-09T08:34:02;63.60;;;34.23;;
4766;SDS011;2397;53.576;9.746;2023-04-09T08:36:29;63.63;;;32.40;;
4766;SDS011;2397;53.576;9.746;2023-04-09T08:38:56;57.33;;;33.30;;
4766;SDS011;2397;53.576;9.746;2023-04-09T08:41:27;63.03;;;32.97;;
4766;SDS011;2397;53.576;9.746;2023-04-09T08:43:55;53.20;;;29.80;;
4766;SDS011;2397;53.576;9.746;2023-04-09T08:46:24;49.07;;;26.03;;
4766;SDS011;2397;53.576;9.746;2023-04-09T08:48:52;48.47;;;28.20;;
4766;SDS011;2397;53.576;9.746;2023-04-09T08:51:20;48.57;;;26.60;;
4766;SDS011;2397;53.576;9.746;2023-04-09T08:53:54;49.13;;;26.37;;
4766;SDS011;2397;53.576;9.746;2023-04-09T08:56:22;53.70;;;30.50;;
4766;SDS011;2397;53.576;9.746;2023-04-09T08:58:49;59.80;;;33.83;;
4766;SDS011;2397;53.576;9.746;2023-04-09T09:01:23;74.90;;;42.57;;
4766;SDS011;2397;53.576;9.746;2023-04-09T09:04:06;73.10;;;39.00;;
4766;SDS011;2397;53.576;9.746;2023-04-09T09:06:35;59.17;;;31.50;;
4766;SDS011;2397;53.576;9.746;2023-04-09T09:11:33;45.50;;;26.83;;
4766;SDS011;2397;53.576;9.746;2023-04-09T09:14:11;42.00;;;24.23;;
4766;SDS011;2397;53.576;9.746;2023-04-09T09:16:39;38.67;;;22.53;;
4766;SDS011;2397;53.576;9.746;2023-04-09T09:19:30;37.53;;;21.73;;
4766;SDS011;2397;53.576;9.746;2023-04-09T09:22:04;36.00;;;22.47;;
4766;SDS011;2397;53.576;9.746;2023-04-09T09:24:33;39.60;;;24.93;;
4766;SDS011;2397;53.576;9.746;2023-04-09T09:29:59;41.00;;;23.30;;
4766;SDS011;2397;53.576;9.746;2023-04-09T09:32:26;38.50;;;23.43;;
4766;SDS011;2397;53.576;9.746;2023-04-09T09:34:56;38.10;;;22.47;;
4766;SDS011;2397;53.576;9.746;2023-04-09T09:37:25;40.57;;;23.53;;
4766;SDS011;2397;53.576;9.746;2023-04-09T09:39:53;36.43;;;21.30;;
4766;SDS011;2397;53.576;9.746;2023-04-09T09:42:19;37.27;;;22.80;;
4766;SDS011;2397;53.576;9.746;2023-04-09T09:44:46;40.70;;;23.30;;
4766;SDS011;2397;53.576;9.746;2023-04-09T09:47:13;40.93;;;25.13;;
4766;SDS011;2397;53.576;9.746;2023-04-09T09:49:40;37.77;;;22.10;;
4766;SDS011;2397;53.576;9.746;2023-04-09T09:52:08;41.17;;;22.20;;
4766;SDS011;2397;53.576;9.746;2023-04-09T09:54:40;33.67;;;22.37;;
4766;SDS011;2397;53.576;9.746;2023-04-09T09:57:10;36.63;;;23.00;;
4766;SDS011;2397;53.576;9.746;2023-04-09T10:02:51;34.77;;;22.53;;
4766;SDS011;2397;53.576;9.746;2023-04-09T10:05:22;37.80;;;24.40;;
4766;SDS011;2397;53.576;9.746;2023-04-09T10:07:56;38.80;;;23.27;;
4766;SDS011;2397;53.576;9.746;2023-04-09T10:10:23;35.40;;;23.50;;
4766;SDS011;2397;53.576;9.746;2023-04-09T10:12:51;36.10;;;23.47;;
4766;SDS011;2397;53.576;9.746;2023-04-09T10:15:18;41.40;;;23.77;;
4766;SDS011;2397;53.576;9.746;2023-04-09T10:17:45;39.23;;;23.13;;
4766;SDS011;2397;53.576;9.746;2023-04-09T10:22:46;37.53;;;23.90;;
4766;SDS011;2397;53.576;9.746;2023-04-09T10:25:15;37.00;;;24.03;;
4766;SDS011;2397;53.576;9.746;2023-04-09T10:27:42;41.77;;;23.83;;
4766;SDS011;2397;53.576;9.746;2023-04-09T10:30:29;33.40;;;21.70;;
4766;SDS011;2397;53.576;9.746;2023-04-09T10:33:09;38.70;;;22.70;;
4766;SDS011;2397;53.576;9.746;2023-04-09T10:35:39;36.87;;;23.67;;
4766;SDS011;2397;53.576;9.746;2023-04-09T10:38:06;39.83;;;24.27;;
4766;SDS011;2397;53.576;9.746;2023-04-09T10:40:41;41.47;;;25.23;;
4766;SDS011;2397;53.576;9.746;2023-04-09T10:43:12;40.70;;;24.20;;
4766;SDS011;2397;53.576;9.746;2023-04-09T10:45:40;39.83;;;24.33;;
4766;SDS011;2397;53.576;9.746;2023-04-09T10:48:10;34.07;;;21.47;;
4766;SDS011;2397;53.576;9.746;2023-04-09T10:50:42;32.50;;;21.47;;
4766;SDS011;2397;53.576;9.746;2023-04-09T10:53:22;31.97;;;21.30;;
4766;SDS011;2397;53.576;9.746;2023-04-09T10:55:53;36.50;;;22.10;;
4766;SDS011;2397;53.576;9.746;2023-04-09T10:58:20;33.47;;;20.03;;
4766;SDS011;2397;53.576;9.746;2023-04-09T11:00:47;30.60;;;21.73;;
4766;SDS011;2397;53.576;9.746;2023-04-09T11:05:47;34.60;;;21.70;;
4766;SDS011;2397;53.576;9.746;2023-04-09T11:08:17;33.17;;;21.10;;
4766;SDS011;2397;53.576;9.746;2023-04-09T11:10:44;28.50;;;18.80;;
4766;SDS011;2397;53.576;9.746;2023-04-09T11:13:16;28.87;;;20.80;;
4766;SDS011;2397;53.576;9.746;2023-04-09T11:15:44;30.10;;;19.30;;
4766;SDS011;2397;53.576;9.746;2023-04-09T11:18:15;30.87;;;19.33;;
4766;SDS011;2397;53.576;9.746;2023-04-09T11:20:45;25.80;;;17.93;;
4766;SDS011;2397;53.576;9.746;2023-04-09T11:23:12;30.27;;;19.37;;
4766;SDS011;2397;53.576;9.746;2023-04-09T11:25:39;27.13;;;18.10;;
4766;SDS011;2397;53.576;9.746;2023-04-09T11:28:05;29.33;;;18.17;;
4766;SDS011;2397;53.576;9.746;2023-04-09T11:30:33;29.50;;;18.30;;
4766;SDS011;2397;53.576;9.746;2023-04-09T11:33:00;31.83;;;19.47;;
4766;SDS011;2397;53.576;9.746;2023-04-09T11:35:27;29.07;;;19.07;;
4766;SDS011;2397;53.576;9.746;2023-04-09T11:37:54;31.87;;;20.00;;
4766;SDS011;2397;53.576;9.746;2023-04-09T11:40:21;30.27;;;20.60;;
4766;SDS011;2397;53.576;9.746;2023-04-09T11:42:50;27.90;;;19.40;;
4766;SDS011;2397;53.576;9.746;2023-04-09T11:45:18;29.20;;;22.70;;
4766;SDS011;2397;53.576;9.746;2023-04-09T11:47:51;38.80;;;26.83;;
4766;SDS011;2397;53.576;9.746;2023-04-09T11:50:19;40.70;;;27.90;;
4766;SDS011;2397;53.576;9.746;2023-04-09T11:52:47;38.50;;;27.07;;
4766;SDS011;2397;53.576;9.746;2023-04-09T11:55:27;37.27;;;25.60;;
4766;SDS011;2397;53.576;9.746;2023-04-09T11:57:58;35.23;;;24.83;;
4766;SDS011;2397;53.576;9.746;2023-04-09T12:00:28;40.07;;;27.23;;
4766;SDS011;2397;53.576;9.746;2023-04-09T12:02:58;38.60;;;26.20;;
4766;SDS011;2397;53.576;9.746;2023-04-09T12:05:29;34.60;;;25.53;;
4766;SDS011;2397;53.576;9.746;2023-04-09T12:07:58;38.23;;;24.93;;
4766;SDS011;2397;53.576;9.746;2023-04-09T12:10:30;24.63;;;17.20;;
4766;SDS011;2397;53.576;9.746;2023-04-09T12:13:00;25.97;;;17.27;;
4766;SDS011;2397;53.576;9.746;2023-04-09T12:15:30;21.87;;;17.03;;
4766;SDS011;2397;53.576;9.746;2023-04-09T12:17:59;24.57;;;17.90;;
4766;SDS011;2397;53.576;9.746;2023-04-09T12:22:55;22.07;;;17.43;;
4766;SDS011;2397;53.576;9.746;2023-04-09T12:25:23;22.80;;;17.50;;
4766;SDS011;2397;53.576;9.746;2023-04-09T12:27:49;27.23;;;17.43;;
4766;SDS011;2397;53.576;9.746;2023-04-09T12:30:16;33.53;;;24.70;;
4766;SDS011;2397;53.576;9.746;2023-04-09T12:32:42;35.10;;;25.80;;
4766;SDS011;2397;53.576;9.746;2023-04-09T12:35:11;36.40;;;23.93;;
4766;SDS011;2397;53.576;9.746;2023-04-09T12:37:38;26.67;;;18.10;;
4766;SDS011;2397;53.576;9.746;2023-04-09T12:40:05;23.70;;;17.77;;
4766;SDS011;2397;53.576;9.746;2023-04-09T12:42:32;25.53;;;17.53;;
4766;SDS011;2397;53.576;9.746;2023-04-09T12:44:58;26.80;;;18.93;;
4766;SDS011;2397;53.576;9.746;2023-04-09T12:47:25;25.13;;;18.23;;
4766;SDS011;2397;53.576;9.746;2023-04-09T12:49:53;25.30;;;17.60;;
4766;SDS011;2397;53.576;9.746;2023-04-09T12:52:19;24.50;;;17.80;;
4766;SDS011;2397;53.576;9.746;2023-04-09T12:54:47;25.37;;;18.00;;
4766;SDS011;2397;53.576;9.746;2023-04-09T12:57:14;26.03;;;18.93;;
4766;SDS011;2397;53.576;9.746;2023-04-09T12:59:40;24.43;;;18.27;;
4766;SDS011;2397;53.576;9.746;2023-04-09T13:02:07;23.10;;;16.87;;
4766;SDS011;2397;53.576;9.746;2023-04-09T13:04:33;24.63;;;17.80;;
4766;SDS011;2397;53.576;9.746;2023-04-09T13:07:00;22.67;;;17.63;;
4766;SDS011;2397;53.576;9.746;2023-04-09T13:09:27;23.80;;;17.30;;
4766;SDS011;2397;53.576;9.746;2023-04-09T13:11:53;24.77;;;17.93;;
4766;SDS011;2397;53.576;9.746;2023-04-09T13:14:20;30.73;;;17.37;;
4766;SDS011;2397;53.576;9.746;2023-04-09T13:16:46;23.40;;;18.50;;
4766;SDS011;2397;53.576;9.746;2023-04-09T13:19:13;20.70;;;15.70;;
4766;SDS011;2397;53.576;9.746;2023-04-09T13:21:39;20.27;;;16.20;;
4766;SDS011;2397;53.576;9.746;2023-04-09T13:24:06;23.77;;;17.90;;
4766;SDS011;2397;53.576;9.746;2023-04-09T13:26:32;25.77;;;19.17;;
4766;SDS011;2397;53.576;9.746;2023-04-09T13:28:59;21.70;;;16.77;;
4766;SDS011;2397;53.576;9.746;2023-04-09T13:31:27;23.20;;;17.70;;
4766;SDS011;2397;53.576;9.746;2023-04-09T13:33:54;21.07;;;16.77;;
4766;SDS011;2397;53.576;9.746;2023-04-09T13:36:21;22.80;;;16.50;;
4766;SDS011;2397;53.576;9.746;2023-04-09T13:38:47;21.07;;;16.37;;
4766;SDS011;2397;53.576;9.746;2023-04-09T13:41:14;22.27;;;16.83;;
4766;SDS011;2397;53.576;9.746;2023-04-09T13:43:41;20.60;;;15.17;;
4766;SDS011;2397;53.576;9.746;2023-04-09T13:46:10;18.43;;;16.17;;
4766;SDS011;2397;53.576;9.746;2023-04-09T13:48:36;21.43;;;16.27;;
4766;SDS011;2397;53.576;9.746;2023-04-09T13:51:03;27.30;;;18.50;;
4766;SDS011;2397;53.576;9.746;2023-04-09T13:53:29;22.60;;;16.50;;
4766;SDS011;2397;53.576;9.746;2023-04-09T13:55:56;19.23;;;16.30;;
4766;SDS011;2397;53.576;9.746;2023-04-09T13:58:22;19.47;;;15.90;;
4766;SDS011;2397;53.576;9.746;2023-04-09T14:00:49;21.10;;;16.63;;
4766;SDS011;2397;53.576;9.746;2023-04-09T14:03:15;21.10;;;15.53;;
4766;SDS011;2397;53.576;9.746;2023-04-09T14:05:42;21.20;;;15.77;;
4766;SDS011;2397;53.576;9.746;2023-04-09T14:08:10;23.07;;;15.73;;
4766;SDS011;2397;53.576;9.746;2023-04-09T14:10:37;17.70;;;14.57;;
4766;SDS011;2397;53.576;9.746;2023-04-09T14:13:03;19.83;;;15.23;;
4766;SDS011;2397;53.576;9.746;2023-04-09T14:15:32;25.30;;;15.57;;
4766;SDS011;2397;53.576;9.746;2023-04-09T14:18:00;20.97;;;16.67;;
4766;SDS011;2397;53.576;9.746;2023-04-09T14:20:26;22.33;;;15.93;;
4766;SDS011;2397;53.576;9.746;2023-04-09T14:22:53;20.50;;;16.10;;
4766;SDS011;2397;53.576;9.746;2023-04-09T14:25:19;18.93;;;15.60;;
4766;SDS011;2397;53.576;9.746;2023-04-09T14:27:46;19.37;;;13.90;;
4766;SDS011;2397;53.576;9.746;2023-04-09T14:30:13;19.20;;;15.93;;
4766;SDS011;2397;53.576;9.746;2023-04-09T14:32:39;18.13;;;14.40;;
4766;SDS011;2397;53.576;9.746;2023-04-09T14:35:06;20.73;;;14.30;;
4766;SDS011;2397;53.576;9.746;2023-04-09T14:37:33;19.40;;;14.60;;
4766;SDS011;2397;53.576;9.746;2023-04-09T14:39:59;19.50;;;14.80;;
4766;SDS011;2397;53.576;9.746;2023-04-09T14:42:26;17.90;;;13.97;;
4766;SDS011;2397;53.576;9.746;2023-04-09T14:44:52;19.40;;;15.83;;
4766;SDS011;2397;53.576;9.746;2023-04-09T14:47:19;20.10;;;15.30;;
4766;SDS011;2397;53.576;9.746;2023-04-09T14:49:46;16.30;;;13.20;;
4766;SDS011;2397;53.576;9.746;2023-04-09T14:52:12;18.20;;;15.33;;
4766;SDS011;2397;53.576;9.746;2023-04-09T14:54:39;17.83;;;14.20;;
4766;SDS011;2397;53.576;9.746;2023-04-09T14:57:05;18.93;;;15.47;;
4766;SDS011;2397;53.576;9.746;2023-04-09T14:59:32;17.10;;;14.17;;
4766;SDS011;2397;53.576;9.746;2023-04-09T15:01:59;18.53;;;14.90;;
4766;SDS011;2397;53.576;9.746;2023-04-09T15:04:26;18.93;;;15.27;;
4766;SDS011;2397;53.576;9.746;2023-04-09T15:06:52;19.70;;;14.40;;
4766;SDS011;2397;53.576;9.746;2023-04-09T15:09:19;16.73;;;14.40;;
4766;SDS011;2397;53.576;9.746;2023-04-09T15:11:45;16.63;;;13.70;;
4766;SDS011;2397;53.576;9.746;2023-04-09T15:14:12;19.27;;;14.30;;
4766;SDS011;2397;53.576;9.746;2023-04-09T15:16:39;15.83;;;14.13;;
4766;SDS011;2397;53.576;9.746;2023-04-09T15:19:07;19.30;;;13.90;;
4766;SDS011;2397;53.576;9.746;2023-04-09T15:21:34;22.50;;;15.30;;